createdAt,value
2017-01-27T00:00:58.087Z,1013.67
2017-01-27T00:01:58.846Z,1013.66
2017-01-27T00:02:58.104Z,1013.63
2017-01-27T00:03:58.111Z,1013.61
2017-01-27T00:04:58.116Z,1013.55
2017-01-27T00:05:58.126Z,1013.55
2017-01-27T00:06:58.135Z,1013.49
2017-01-27T00:07:58.141Z,1013.5
2017-01-27T00:08:58.146Z,1013.44
2017-01-27T00:09:58.155Z,1013.42
2017-01-27T00:10:58.162Z,1013.42
2017-01-27T00:11:58.169Z,1013.42
2017-01-27T00:12:58.178Z,1013.41
2017-01-27T00:13:58.235Z,1013.42
2017-01-27T00:14:58.193Z,1013.42
2017-01-27T00:15:58.202Z,1013.38
2017-01-27T00:16:59.156Z,1013.34
2017-01-27T00:17:58.213Z,1013.28
2017-01-27T00:18:58.272Z,1013.26
2017-01-27T00:19:58.279Z,1013.22
2017-01-27T00:20:58.237Z,1013.19
2017-01-27T00:21:58.245Z,1013.21
2017-01-27T00:22:58.251Z,1013.28
2017-01-27T00:23:58.259Z,1013.29
2017-01-27T00:24:58.266Z,1013.26
2017-01-27T00:25:58.325Z,1013.26
2017-01-27T00:26:58.282Z,1013.19
2017-01-27T00:27:58.338Z,1013.27
2017-01-27T00:28:58.347Z,1013.27
2017-01-27T00:29:58.303Z,1013.31
2017-01-27T00:30:58.311Z,1013.31
2017-01-27T00:31:58.319Z,1013.33
2017-01-27T00:32:58.326Z,1013.35
2017-01-27T00:33:58.331Z,1013.36
2017-01-27T00:34:58.389Z,1013.35
2017-01-27T00:35:58.350Z,1013.33
2017-01-27T00:36:58.356Z,1013.34
2017-01-27T00:37:58.362Z,1013.33
2017-01-27T00:38:58.821Z,1013.31
2017-01-27T00:39:58.378Z,1013.3
2017-01-27T00:40:58.387Z,1013.23
2017-01-27T00:41:58.392Z,1013.24
2017-01-27T00:42:58.401Z,1013.21
2017-01-27T00:43:58.408Z,1013.2
2017-01-27T00:44:58.414Z,1013.2
2017-01-27T00:45:58.473Z,1013.2
2017-01-27T00:46:58.430Z,1013.19
2017-01-27T00:47:58.490Z,1013.21
2017-01-27T00:48:58.444Z,1013.13
2017-01-27T00:49:58.453Z,1013.16
2017-01-27T00:50:58.461Z,1013.17
2017-01-27T00:51:58.468Z,1013.17
2017-01-27T00:52:58.476Z,1013.18
2017-01-27T00:53:58.484Z,1013.14
2017-01-27T00:54:58.540Z,1013.16
2017-01-27T00:55:58.496Z,1013.13
2017-01-27T00:56:58.505Z,1013.22
2017-01-27T00:57:58.513Z,1013.2
2017-01-27T00:58:58.520Z,1013.24
2017-01-27T00:59:58.529Z,1013.24
2017-01-27T01:00:58.543Z,1013.22
2017-01-27T01:01:58.843Z,1013.23
2017-01-27T01:02:58.551Z,1013.19
2017-01-27T01:03:58.558Z,1013.23
2017-01-27T01:04:58.566Z,1013.24
2017-01-27T01:05:58.577Z,1013.26
2017-01-27T01:06:58.581Z,1013.21
2017-01-27T01:07:58.590Z,1013.23
2017-01-27T01:08:58.597Z,1013.21
2017-01-27T01:09:58.603Z,1013.25
2017-01-27T01:10:58.611Z,1013.19
2017-01-27T01:11:58.619Z,1013.2
2017-01-27T01:12:58.628Z,1013.22
2017-01-27T01:13:58.633Z,1013.2
2017-01-27T01:14:58.641Z,1013.22
2017-01-27T01:15:58.698Z,1013.23
2017-01-27T01:16:58.655Z,1013.22
2017-01-27T01:17:58.663Z,1013.2
2017-01-27T01:18:58.671Z,1013.21
2017-01-27T01:19:58.730Z,1013.16
2017-01-27T01:20:58.737Z,1013.18
2017-01-27T01:21:58.694Z,1013.15
2017-01-27T01:22:58.759Z,1013.15
2017-01-27T01:23:58.712Z,1013.11
2017-01-27T01:24:59.267Z,1013.11
2017-01-27T01:25:58.774Z,1013.04
2017-01-27T01:26:58.781Z,1013.06
2017-01-27T01:27:58.739Z,1013.05
2017-01-27T01:28:58.747Z,1012.98
2017-01-27T01:29:58.753Z,1013.01
2017-01-27T01:30:58.763Z,1012.99
2017-01-27T01:31:58.770Z,1012.95
2017-01-27T01:32:58.778Z,1012.92
2017-01-27T01:33:58.785Z,1012.88
2017-01-27T01:34:58.791Z,1012.86
2017-01-27T01:35:58.848Z,1012.88
2017-01-27T01:36:58.807Z,1012.89
2017-01-27T01:37:58.815Z,1012.86
2017-01-27T01:38:58.823Z,1012.85
2017-01-27T01:39:58.830Z,1012.81
2017-01-27T01:40:58.837Z,1012.82
2017-01-27T01:41:58.844Z,1012.81
2017-01-27T01:42:58.853Z,1012.83
2017-01-27T01:43:58.860Z,1012.84
2017-01-27T01:44:58.867Z,1012.8
2017-01-27T01:45:58.875Z,1012.8
2017-01-27T01:46:59.432Z,1012.8
2017-01-27T01:47:58.891Z,1012.75
2017-01-27T01:48:58.898Z,1012.74
2017-01-27T01:49:58.957Z,1012.7
2017-01-27T01:50:58.911Z,1012.69
2017-01-27T01:51:58.921Z,1012.72
2017-01-27T01:52:58.927Z,1012.73
2017-01-27T01:53:58.986Z,1012.72
2017-01-27T01:54:58.943Z,1012.75
2017-01-27T01:55:59.001Z,1012.74
2017-01-27T01:56:58.958Z,1012.74
2017-01-27T01:57:58.966Z,1012.74
2017-01-27T01:58:58.975Z,1012.78
2017-01-27T01:59:58.982Z,1012.76
2017-01-27T02:00:58.989Z,1012.75
2017-01-27T02:01:58.997Z,1012.75
2017-01-27T02:02:59.004Z,1012.76
2017-01-27T02:03:59.013Z,1012.7
2017-01-27T02:04:59.021Z,1012.7
2017-01-27T02:05:59.025Z,1012.74
2017-01-27T02:06:59.035Z,1012.74
2017-01-27T02:07:59.043Z,1012.76
2017-01-27T02:08:59.050Z,1012.77
2017-01-27T02:09:59.058Z,1012.78
2017-01-27T02:11:00.177Z,1012.71
2017-01-27T02:11:59.075Z,1012.7
2017-01-27T02:12:59.079Z,1012.67
2017-01-27T02:13:59.091Z,1012.64
2017-01-27T02:14:59.146Z,1012.6
2017-01-27T02:15:59.102Z,1012.61
2017-01-27T02:16:59.109Z,1012.57
2017-01-27T02:17:59.118Z,1012.54
2017-01-27T02:18:59.125Z,1012.52
2017-01-27T02:19:59.132Z,1012.53
2017-01-27T02:20:59.141Z,1012.47
2017-01-27T02:21:59.148Z,1012.48
2017-01-27T02:22:59.182Z,1012.5
2017-01-27T02:23:59.162Z,1012.43
2017-01-27T02:24:59.170Z,1012.37
2017-01-27T02:25:59.179Z,1012.32
2017-01-27T02:26:59.184Z,1012.32
2017-01-27T02:27:59.193Z,1012.31
2017-01-27T02:28:59.200Z,1012.27
2017-01-27T02:29:59.207Z,1012.28
2017-01-27T02:30:59.218Z,1012.3
2017-01-27T02:31:59.227Z,1012.38
2017-01-27T02:33:00.132Z,1012.44
2017-01-27T02:33:59.240Z,1012.43
2017-01-27T02:34:59.248Z,1012.39
2017-01-27T02:35:59.255Z,1012.38
2017-01-27T02:36:59.262Z,1012.36
2017-01-27T02:37:59.269Z,1012.25
2017-01-27T02:38:59.277Z,1012.1
2017-01-27T02:39:59.333Z,1012.06
2017-01-27T02:40:59.293Z,1012.08
2017-01-27T02:41:59.298Z,1012.2
2017-01-27T02:42:59.308Z,1012.24
2017-01-27T02:43:59.315Z,1012.22
2017-01-27T02:44:59.322Z,1012.28
2017-01-27T02:45:59.381Z,1012.29
2017-01-27T02:46:59.336Z,1012.27
2017-01-27T02:47:59.343Z,1012.29
2017-01-27T02:48:59.352Z,1012.26
2017-01-27T02:49:59.361Z,1012.3
2017-01-27T02:50:59.367Z,1012.28
2017-01-27T02:51:59.423Z,1012.3
2017-01-27T02:52:59.381Z,1012.34
2017-01-27T02:53:59.440Z,1012.32
2017-01-27T02:55:00.200Z,1012.36
2017-01-27T02:55:59.405Z,1012.33
2017-01-27T02:56:59.412Z,1012.29
2017-01-27T02:57:59.420Z,1012.26
2017-01-27T02:58:59.428Z,1012.25
2017-01-27T02:59:59.436Z,1012.25
2017-01-27T03:00:59.443Z,1012.18
2017-01-27T03:01:59.453Z,1012.17
2017-01-27T03:02:59.509Z,1012.2
2017-01-27T03:03:59.467Z,1012.28
2017-01-27T03:04:59.522Z,1012.29
2017-01-27T03:05:59.480Z,1012.34
2017-01-27T03:06:59.488Z,1012.35
2017-01-27T03:07:59.546Z,1012.39
2017-01-27T03:08:59.504Z,1012.36
2017-01-27T03:09:59.562Z,1012.33
2017-01-27T03:10:59.517Z,1012.33
2017-01-27T03:11:59.525Z,1012.3
2017-01-27T03:12:59.532Z,1012.3
2017-01-27T03:13:59.542Z,1012.3
2017-01-27T03:14:59.547Z,1012.31
2017-01-27T03:15:59.556Z,1012.31
2017-01-27T03:17:00.716Z,1012.29
2017-01-27T03:17:59.571Z,1012.36
2017-01-27T03:18:59.578Z,1012.4
2017-01-27T03:19:59.615Z,1012.39
2017-01-27T03:20:59.594Z,1012.44
2017-01-27T03:21:59.651Z,1012.42
2017-01-27T03:22:59.609Z,1012.45
2017-01-27T03:23:59.617Z,1012.41
2017-01-27T03:24:59.625Z,1012.44
2017-01-27T03:25:59.680Z,1012.4
2017-01-27T03:26:59.689Z,1012.38
2017-01-27T03:27:59.647Z,1012.44
2017-01-27T03:28:59.652Z,1012.45
2017-01-27T03:29:59.975Z,1012.45
2017-01-27T03:30:59.667Z,1012.41
2017-01-27T03:31:59.678Z,1012.39
2017-01-27T03:32:59.720Z,1012.33
2017-01-27T03:33:59.691Z,1012.34
2017-01-27T03:34:59.699Z,1012.32
2017-01-27T03:35:59.709Z,1012.34
2017-01-27T03:36:59.715Z,1012.37
2017-01-27T03:37:59.722Z,1012.34
2017-01-27T03:38:59.729Z,1012.32
2017-01-27T03:39:59.737Z,1012.39
2017-01-27T03:40:59.756Z,1012.41
2017-01-27T03:41:59.754Z,1012.42
2017-01-27T03:42:59.760Z,1012.41
2017-01-27T03:43:59.782Z,1012.42
2017-01-27T03:44:59.776Z,1012.45
2017-01-27T03:45:59.784Z,1012.47
2017-01-27T03:46:59.790Z,1012.47
2017-01-27T03:47:59.797Z,1012.48
2017-01-27T03:48:59.805Z,1012.48
2017-01-27T03:49:59.813Z,1012.44
2017-01-27T03:50:59.870Z,1012.44
2017-01-27T03:51:59.832Z,1012.45
2017-01-27T03:52:59.940Z,1012.47
2017-01-27T03:53:59.845Z,1012.46
2017-01-27T03:54:59.899Z,1012.46
2017-01-27T03:55:59.908Z,1012.53
2017-01-27T03:56:59.865Z,1012.54
2017-01-27T03:57:59.872Z,1012.57
2017-01-27T03:58:59.879Z,1012.55
2017-01-27T03:59:59.888Z,1012.52
2017-01-27T04:00:59.896Z,1012.51
2017-01-27T04:01:59.953Z,1012.55
2017-01-27T04:02:59.909Z,1012.48
2017-01-27T04:04:00.011Z,1012.44
2017-01-27T04:04:59.927Z,1012.48
2017-01-27T04:05:59.934Z,1012.45
2017-01-27T04:06:59.972Z,1012.41
2017-01-27T04:07:59.947Z,1012.36
2017-01-27T04:09:00.007Z,1012.38
2017-01-27T04:09:59.966Z,1012.34
2017-01-27T04:11:00.071Z,1012.35
2017-01-27T04:11:59.979Z,1012.33
2017-01-27T04:12:59.986Z,1012.24
2017-01-27T04:14:00.045Z,1012.24
2017-01-27T04:15:00.015Z,1012.22
2017-01-27T04:16:00.066Z,1012.2
2017-01-27T04:17:00.017Z,1012.17
2017-01-27T04:18:00.025Z,1012.25
2017-01-27T04:19:00.080Z,1012.18
2017-01-27T04:20:00.339Z,1012.12
2017-01-27T04:21:00.135Z,1012.14
2017-01-27T04:22:00.155Z,1012.11
2017-01-27T04:23:00.143Z,1012.06
2017-01-27T04:24:00.086Z,1012.07
2017-01-27T04:25:00.167Z,1012.11
2017-01-27T04:26:00.116Z,1012.12
2017-01-27T04:27:00.092Z,1012.16
2017-01-27T04:28:00.234Z,1012.16
2017-01-27T04:29:00.108Z,1012.08
2017-01-27T04:30:00.137Z,1012.07
2017-01-27T04:31:00.122Z,1012.07
2017-01-27T04:32:00.217Z,1012.04
2017-01-27T04:33:00.135Z,1012.06
2017-01-27T04:34:00.146Z,1012.06
2017-01-27T04:35:00.197Z,1012.05
2017-01-27T04:36:00.158Z,1012.04
2017-01-27T04:37:00.167Z,1011.98
2017-01-27T04:38:00.226Z,1011.99
2017-01-27T04:39:00.206Z,1012.03
2017-01-27T04:40:00.273Z,1012.02
2017-01-27T04:41:00.197Z,1012.03
2017-01-27T04:42:00.260Z,1012.04
2017-01-27T04:43:00.259Z,1012.11
2017-01-27T04:44:00.219Z,1012.11
2017-01-27T04:45:00.225Z,1012.11
2017-01-27T04:46:00.340Z,1012.16
2017-01-27T04:47:00.327Z,1012.18
2017-01-27T04:48:00.299Z,1012.22
2017-01-27T04:49:00.306Z,1012.19
2017-01-27T04:50:00.366Z,1012.23
2017-01-27T04:51:00.334Z,1012.2
2017-01-27T04:52:00.277Z,1012.19
2017-01-27T04:53:00.420Z,1012.22
2017-01-27T04:54:00.292Z,1012.21
2017-01-27T04:55:00.300Z,1012.22
2017-01-27T04:56:00.357Z,1012.26
2017-01-27T04:57:00.366Z,1012.22
2017-01-27T04:58:00.320Z,1012.18
2017-01-27T04:59:00.329Z,1012.11
2017-01-27T05:00:00.450Z,1012.09
2017-01-27T05:01:00.343Z,1012.04
2017-01-27T05:02:00.352Z,1012.12
2017-01-27T05:03:00.422Z,1012.11
2017-01-27T05:04:00.365Z,1012.04
2017-01-27T05:05:00.407Z,1012.02
2017-01-27T05:06:00.381Z,1011.92
2017-01-27T05:07:00.478Z,1011.87
2017-01-27T05:08:00.393Z,1011.89
2017-01-27T05:09:00.451Z,1011.92
2017-01-27T05:10:00.409Z,1011.92
2017-01-27T05:11:00.418Z,1011.88
2017-01-27T05:12:00.475Z,1011.87
2017-01-27T05:13:00.485Z,1011.85
2017-01-27T05:14:00.940Z,1011.87
2017-01-27T05:15:00.525Z,1011.89
2017-01-27T05:16:00.505Z,1011.88
2017-01-27T05:17:00.461Z,1011.86
2017-01-27T05:18:00.471Z,1011.86
2017-01-27T05:19:00.476Z,1011.83
2017-01-27T05:20:00.538Z,1011.84
2017-01-27T05:21:00.539Z,1011.86
2017-01-27T05:22:00.498Z,1011.87
2017-01-27T05:23:00.529Z,1011.84
2017-01-27T05:24:00.511Z,1011.8
2017-01-27T05:25:00.519Z,1011.82
2017-01-27T05:26:00.607Z,1011.81
2017-01-27T05:27:00.573Z,1011.87
2017-01-27T05:28:00.793Z,1011.88
2017-01-27T05:29:00.642Z,1011.8
2017-01-27T05:30:00.557Z,1011.77
2017-01-27T05:31:00.630Z,1011.74
2017-01-27T05:32:00.673Z,1011.72
2017-01-27T05:33:00.578Z,1011.71
2017-01-27T05:34:00.585Z,1011.7
2017-01-27T05:35:00.646Z,1011.66
2017-01-27T05:36:00.637Z,1011.64
2017-01-27T05:37:00.656Z,1011.67
2017-01-27T05:38:00.628Z,1011.66
2017-01-27T05:39:00.622Z,1011.67
2017-01-27T05:40:00.679Z,1011.68
2017-01-27T05:41:00.718Z,1011.7
2017-01-27T05:42:01.095Z,1011.69
2017-01-27T05:43:00.705Z,1011.66
2017-01-27T05:44:00.707Z,1011.65
2017-01-27T05:45:00.739Z,1011.71
2017-01-27T05:46:00.761Z,1011.7
2017-01-27T05:47:00.682Z,1011.75
2017-01-27T05:48:00.736Z,1011.7
2017-01-27T05:49:00.774Z,1011.7
2017-01-27T05:50:00.704Z,1011.6
2017-01-27T05:51:00.762Z,1011.67
2017-01-27T05:52:00.782Z,1011.68
2017-01-27T05:53:00.782Z,1011.64
2017-01-27T05:54:00.733Z,1011.64
2017-01-27T05:55:00.841Z,1011.66
2017-01-27T05:56:00.840Z,1011.65
2017-01-27T05:57:00.801Z,1011.63
2017-01-27T05:58:00.764Z,1011.6
2017-01-27T05:59:00.768Z,1011.63
2017-01-27T06:00:00.775Z,1011.58
2017-01-27T06:01:00.835Z,1011.57
2017-01-27T06:02:00.858Z,1011.61
2017-01-27T06:03:00.797Z,1011.62
2017-01-27T06:04:00.812Z,1011.64
2017-01-27T06:05:00.883Z,1011.63
2017-01-27T06:06:00.859Z,1011.65
2017-01-27T06:07:00.878Z,1011.68
2017-01-27T06:08:00.928Z,1011.7
2017-01-27T06:09:00.883Z,1011.72
2017-01-27T06:10:00.847Z,1011.73
2017-01-27T06:11:00.932Z,1011.69
2017-01-27T06:12:00.924Z,1011.73
2017-01-27T06:13:00.879Z,1011.71
2017-01-27T06:14:00.943Z,1011.77
2017-01-27T06:15:00.933Z,1011.74
2017-01-27T06:16:00.996Z,1011.71
2017-01-27T06:17:00.904Z,1011.68
2017-01-27T06:18:01.001Z,1011.7
2017-01-27T06:19:00.916Z,1011.69
2017-01-27T06:20:01.011Z,1011.73
2017-01-27T06:21:00.995Z,1011.73
2017-01-27T06:22:00.936Z,1011.72
2017-01-27T06:23:01.549Z,1011.74
2017-01-27T06:24:00.988Z,1011.77
2017-01-27T06:25:01.001Z,1011.78
2017-01-27T06:26:00.965Z,1011.78
2017-01-27T06:27:01.023Z,1011.72
2017-01-27T06:28:00.980Z,1011.72
2017-01-27T06:29:01.012Z,1011.73
2017-01-27T06:30:00.994Z,1011.8
2017-01-27T06:31:01.052Z,1011.72
2017-01-27T06:32:01.009Z,1011.75
2017-01-27T06:33:01.103Z,1011.76
2017-01-27T06:34:01.091Z,1011.71
2017-01-27T06:35:01.032Z,1011.73
2017-01-27T06:36:01.040Z,1011.69
2017-01-27T06:37:01.125Z,1011.64
2017-01-27T06:38:01.072Z,1011.63
2017-01-27T06:39:01.108Z,1011.58
2017-01-27T06:40:01.117Z,1011.64
2017-01-27T06:41:01.073Z,1011.66
2017-01-27T06:42:01.082Z,1011.67
2017-01-27T06:43:01.150Z,1011.66
2017-01-27T06:44:01.122Z,1011.68
2017-01-27T06:45:01.103Z,1011.66
2017-01-27T06:46:01.130Z,1011.67
2017-01-27T06:47:01.116Z,1011.72
2017-01-27T06:48:01.226Z,1011.71
2017-01-27T06:49:01.131Z,1011.7
2017-01-27T06:50:01.222Z,1011.67
2017-01-27T06:51:01.153Z,1011.69
2017-01-27T06:52:01.233Z,1011.7
2017-01-27T06:53:01.249Z,1011.64
2017-01-27T06:54:01.168Z,1011.66
2017-01-27T06:55:01.230Z,1011.63
2017-01-27T06:56:01.259Z,1011.65
2017-01-27T06:57:01.267Z,1011.63
2017-01-27T06:58:01.196Z,1011.71
2017-01-27T06:59:01.202Z,1011.71
2017-01-27T07:00:01.216Z,1011.7
2017-01-27T07:01:01.298Z,1011.69
2017-01-27T07:02:01.246Z,1011.7
2017-01-27T07:03:01.233Z,1011.67
2017-01-27T07:04:01.311Z,1011.66
2017-01-27T07:05:01.248Z,1011.71
2017-01-27T07:06:01.348Z,1011.75
2017-01-27T07:07:01.260Z,1011.78
2017-01-27T07:08:01.271Z,1011.74
2017-01-27T07:09:01.274Z,1011.76
2017-01-27T07:10:01.334Z,1011.74
2017-01-27T07:11:01.362Z,1011.81
2017-01-27T07:12:02.379Z,1011.72
2017-01-27T07:13:01.360Z,1011.84
2017-01-27T07:14:01.333Z,1011.75
2017-01-27T07:15:01.368Z,1011.83
2017-01-27T07:16:01.378Z,1011.75
2017-01-27T07:17:01.347Z,1011.79
2017-01-27T07:18:01.416Z,1011.86
2017-01-27T07:19:01.415Z,1011.85
2017-01-27T07:20:01.355Z,1011.88
2017-01-27T07:21:01.463Z,1011.92
2017-01-27T07:22:01.371Z,1011.79
2017-01-27T07:23:01.466Z,1011.82
2017-01-27T07:24:01.386Z,1011.81
2017-01-27T07:25:01.478Z,1011.96
2017-01-27T07:26:01.450Z,1011.95
2017-01-27T07:27:01.492Z,1011.85
2017-01-27T07:28:01.464Z,1011.84
2017-01-27T07:29:01.510Z,1011.8
2017-01-27T07:30:01.479Z,1011.81
2017-01-27T07:31:01.542Z,1011.83
2017-01-27T07:32:01.523Z,1011.8
2017-01-27T07:33:01.487Z,1011.81
2017-01-27T07:34:01.503Z,1011.79
2017-01-27T07:35:01.535Z,1011.75
2017-01-27T07:36:01.493Z,1011.75
2017-01-27T07:37:01.559Z,1011.76
2017-01-27T07:38:01.486Z,1011.73
2017-01-27T07:39:01.501Z,1011.77
2017-01-27T07:40:01.506Z,1011.79
2017-01-27T07:41:01.561Z,1011.8
2017-01-27T07:42:01.611Z,1011.84
2017-01-27T07:43:01.577Z,1011.83
2017-01-27T07:44:01.536Z,1011.78
2017-01-27T07:45:01.541Z,1011.8
2017-01-27T07:46:01.643Z,1011.77
2017-01-27T07:47:01.608Z,1011.77
2017-01-27T07:48:01.637Z,1011.78
2017-01-27T07:49:01.620Z,1011.77
2017-01-27T07:50:01.657Z,1011.82
2017-01-27T07:51:01.591Z,1011.76
2017-01-27T07:52:01.676Z,1011.84
2017-01-27T07:53:01.733Z,1011.8
2017-01-27T07:54:01.701Z,1011.86
2017-01-27T07:55:01.665Z,1011.85
2017-01-27T07:56:01.689Z,1011.85
2017-01-27T07:57:01.734Z,1011.82
2017-01-27T07:58:01.706Z,1011.84
2017-01-27T07:59:01.711Z,1011.83
2017-01-27T08:00:01.751Z,1011.83
2017-01-27T08:01:01.672Z,1011.83
2017-01-27T08:02:01.776Z,1011.87
2017-01-27T08:03:01.736Z,1011.81
2017-01-27T08:04:01.744Z,1011.85
2017-01-27T08:05:01.704Z,1011.86
2017-01-27T08:06:01.791Z,1011.94
2017-01-27T08:07:01.812Z,1011.89
2017-01-27T08:08:01.729Z,1011.95
2017-01-27T08:09:01.795Z,1011.94
2017-01-27T08:10:01.746Z,1011.97
2017-01-27T08:11:01.853Z,1011.97
2017-01-27T08:12:01.762Z,1011.93
2017-01-27T08:13:01.772Z,1011.97
2017-01-27T08:14:01.828Z,1011.95
2017-01-27T08:15:01.791Z,1011.95
2017-01-27T08:16:01.831Z,1011.96
2017-01-27T08:17:01.804Z,1011.99
2017-01-27T08:18:01.829Z,1011.97
2017-01-27T08:19:01.862Z,1012.01
2017-01-27T08:20:01.883Z,1011.97
2017-01-27T08:21:01.838Z,1011.97
2017-01-27T08:22:01.856Z,1011.98
2017-01-27T08:23:01.906Z,1011.94
2017-01-27T08:24:01.863Z,1012
2017-01-27T08:25:01.881Z,1011.98
2017-01-27T08:26:01.939Z,1011.96
2017-01-27T08:27:01.990Z,1012.03
2017-01-27T08:28:01.899Z,1012
2017-01-27T08:29:01.905Z,1012
2017-01-27T08:30:01.987Z,1011.99
2017-01-27T08:31:02.016Z,1011.93
2017-01-27T08:32:01.943Z,1011.95
2017-01-27T08:33:02.034Z,1011.95
2017-01-27T08:34:01.948Z,1011.93
2017-01-27T08:35:02.007Z,1011.96
2017-01-27T08:36:02.052Z,1011.98
2017-01-27T08:37:02.043Z,1012
2017-01-27T08:38:02.032Z,1012.02
2017-01-27T08:39:02.047Z,1012.01
2017-01-27T08:40:02.094Z,1012
2017-01-27T08:41:02.007Z,1012
2017-01-27T08:42:02.086Z,1011.98
2017-01-27T08:43:02.065Z,1011.96
2017-01-27T08:44:02.117Z,1011.99
2017-01-27T08:45:02.044Z,1011.94
2017-01-27T08:46:02.072Z,1011.99
2017-01-27T08:47:02.107Z,1011.93
2017-01-27T08:48:02.113Z,1011.94
2017-01-27T08:49:02.151Z,1011.96
2017-01-27T08:50:02.141Z,1011.96
2017-01-27T08:51:02.092Z,1011.96
2017-01-27T08:52:02.162Z,1011.98
2017-01-27T08:53:02.107Z,1012.03
2017-01-27T08:54:02.174Z,1012.02
2017-01-27T08:55:02.209Z,1012.06
2017-01-27T08:56:02.161Z,1012.08
2017-01-27T08:57:02.222Z,1012.12
2017-01-27T08:58:02.151Z,1012.18
2017-01-27T08:59:02.211Z,1012.19
2017-01-27T09:00:02.222Z,1012.15
2017-01-27T09:01:02.265Z,1012.19
2017-01-27T09:02:02.274Z,1012.22
2017-01-27T09:03:02.248Z,1012.18
2017-01-27T09:04:02.306Z,1012.2
2017-01-27T09:05:02.304Z,1012.25
2017-01-27T09:06:02.234Z,1012.19
2017-01-27T09:07:02.303Z,1012.16
2017-01-27T09:08:02.246Z,1012.17
2017-01-27T09:09:02.333Z,1012.15
2017-01-27T09:10:02.329Z,1012.15
2017-01-27T09:11:02.275Z,1012.16
2017-01-27T09:12:02.379Z,1012.19
2017-01-27T09:13:02.396Z,1012.22
2017-01-27T09:14:02.359Z,1012.22
2017-01-27T09:15:03.165Z,1012.19
2017-01-27T09:16:02.325Z,1012.2
2017-01-27T09:17:02.334Z,1012.24
2017-01-27T09:18:02.395Z,1012.22
2017-01-27T09:19:02.372Z,1012.24
2017-01-27T09:20:02.374Z,1012.19
2017-01-27T09:21:02.379Z,1012.19
2017-01-27T09:22:02.463Z,1012.17
2017-01-27T09:23:02.394Z,1012.22
2017-01-27T09:24:02.491Z,1012.2
2017-01-27T09:25:02.473Z,1012.22
2017-01-27T09:26:02.498Z,1012.21
2017-01-27T09:27:02.435Z,1012.21
2017-01-27T09:28:02.530Z,1012.25
2017-01-27T09:29:02.453Z,1012.31
2017-01-27T09:30:02.529Z,1012.35
2017-01-27T09:31:02.472Z,1012.27
2017-01-27T09:32:02.580Z,1012.32
2017-01-27T09:33:02.542Z,1012.36
2017-01-27T09:34:02.528Z,1012.37
2017-01-27T09:35:02.508Z,1012.36
2017-01-27T09:36:02.559Z,1012.38
2017-01-27T09:37:02.528Z,1012.39
2017-01-27T09:38:02.602Z,1012.38
2017-01-27T09:39:02.620Z,1012.43
2017-01-27T09:40:02.599Z,1012.46
2017-01-27T09:41:02.639Z,1012.39
2017-01-27T09:42:02.626Z,1012.5
2017-01-27T09:43:02.585Z,1012.36
2017-01-27T09:44:02.727Z,1012.47
2017-01-27T09:45:02.665Z,1012.43
2017-01-27T09:46:02.694Z,1012.45
2017-01-27T09:47:02.623Z,1012.43
2017-01-27T09:48:02.632Z,1012.43
2017-01-27T09:49:02.731Z,1012.53
2017-01-27T09:50:02.724Z,1012.45
2017-01-27T09:51:02.759Z,1012.47
2017-01-27T09:52:02.738Z,1012.44
2017-01-27T09:53:02.674Z,1012.47
2017-01-27T09:54:02.734Z,1012.46
2017-01-27T09:55:02.746Z,1012.37
2017-01-27T09:56:02.753Z,1012.44
2017-01-27T09:57:02.723Z,1012.4
2017-01-27T09:58:02.818Z,1012.44
2017-01-27T09:59:02.815Z,1012.42
2017-01-27T10:00:02.741Z,1012.42
2017-01-27T10:01:02.831Z,1012.44
2017-01-27T10:02:02.814Z,1012.45
2017-01-27T10:03:02.843Z,1012.38
2017-01-27T10:04:02.823Z,1012.51
2017-01-27T10:05:02.782Z,1012.42
2017-01-27T10:06:02.844Z,1012.41
2017-01-27T10:07:02.871Z,1012.38
2017-01-27T10:08:02.856Z,1012.41
2017-01-27T10:09:02.817Z,1012.32
2017-01-27T10:10:02.903Z,1012.38
2017-01-27T10:11:02.884Z,1012.42
2017-01-27T10:12:02.841Z,1012.42
2017-01-27T10:13:02.899Z,1012.38
2017-01-27T10:14:02.911Z,1012.39
2017-01-27T10:15:02.950Z,1012.41
2017-01-27T10:16:02.875Z,1012.36
2017-01-27T10:17:02.977Z,1012.35
2017-01-27T10:18:02.978Z,1012.39
2017-01-27T10:19:02.989Z,1012.47
2017-01-27T10:20:02.986Z,1012.42
2017-01-27T10:21:02.918Z,1012.33
2017-01-27T10:22:03.003Z,1012.43
2017-01-27T10:23:03.013Z,1012.34
2017-01-27T10:24:02.962Z,1012.33
2017-01-27T10:25:03.065Z,1012.4
2017-01-27T10:26:03.010Z,1012.37
2017-01-27T10:27:02.981Z,1012.38
2017-01-27T10:28:03.051Z,1012.36
2017-01-27T10:29:03.010Z,1012.3
2017-01-27T10:30:02.992Z,1012.3
2017-01-27T10:31:03.001Z,1012.35
2017-01-27T10:32:03.060Z,1012.41
2017-01-27T10:33:03.020Z,1012.39
2017-01-27T10:34:03.063Z,1012.43
2017-01-27T10:35:03.040Z,1012.34
2017-01-27T10:36:03.098Z,1012.35
2017-01-27T10:37:03.081Z,1012.33
2017-01-27T10:38:03.153Z,1012.41
2017-01-27T10:39:03.066Z,1012.38
2017-01-27T10:40:03.149Z,1012.39
2017-01-27T10:41:03.083Z,1012.36
2017-01-27T10:42:03.089Z,1012.37
2017-01-27T10:43:03.098Z,1012.36
2017-01-27T10:44:03.105Z,1012.36
2017-01-27T10:45:03.164Z,1012.42
2017-01-27T10:46:03.197Z,1012.34
2017-01-27T10:47:03.129Z,1012.36
2017-01-27T10:48:03.210Z,1012.41
2017-01-27T10:49:03.144Z,1012.38
2017-01-27T10:50:03.153Z,1012.4
2017-01-27T10:51:03.161Z,1012.43
2017-01-27T10:52:03.256Z,1012.4
2017-01-27T10:53:03.415Z,1012.41
2017-01-27T10:54:03.386Z,1012.48
2017-01-27T10:55:03.366Z,1012.47
2017-01-27T10:56:03.699Z,1012.44
2017-01-27T10:57:03.439Z,1012.34
2017-01-27T10:58:03.358Z,1012.36
2017-01-27T10:59:03.223Z,1012.36
2017-01-27T11:00:03.231Z,1012.37
2017-01-27T11:01:03.323Z,1012.36
2017-01-27T11:02:03.248Z,1012.34
2017-01-27T11:03:03.256Z,1012.29
2017-01-27T11:04:03.303Z,1012.34
2017-01-27T11:05:03.352Z,1012.33
2017-01-27T11:06:03.275Z,1012.33
2017-01-27T11:07:03.285Z,1012.34
2017-01-27T11:08:03.292Z,1012.43
2017-01-27T11:09:03.372Z,1012.4
2017-01-27T11:10:03.352Z,1012.39
2017-01-27T11:11:03.367Z,1012.37
2017-01-27T11:12:03.351Z,1012.45
2017-01-27T11:13:03.439Z,1012.39
2017-01-27T11:14:03.350Z,1012.43
2017-01-27T11:15:03.346Z,1012.37
2017-01-27T11:16:03.353Z,1012.3
2017-01-27T11:17:03.362Z,1012.38
2017-01-27T11:18:03.372Z,1012.32
2017-01-27T11:19:03.432Z,1012.29
2017-01-27T11:20:03.432Z,1012.26
2017-01-27T11:21:03.390Z,1012.31
2017-01-27T11:22:03.491Z,1012.28
2017-01-27T11:23:03.405Z,1012.31
2017-01-27T11:24:03.413Z,1012.34
2017-01-27T11:25:03.472Z,1012.3
2017-01-27T11:26:03.432Z,1012.33
2017-01-27T11:27:03.523Z,1012.34
2017-01-27T11:28:03.446Z,1012.3
2017-01-27T11:29:03.449Z,1012.26
2017-01-27T11:30:03.509Z,1012.25
2017-01-27T11:31:03.466Z,1012.33
2017-01-27T11:32:03.523Z,1012.26
2017-01-27T11:33:03.481Z,1012.21
2017-01-27T11:34:03.494Z,1012.3
2017-01-27T11:35:03.547Z,1012.3
2017-01-27T11:36:03.504Z,1012.34
2017-01-27T11:37:03.601Z,1012.26
2017-01-27T11:38:03.519Z,1012.25
2017-01-27T11:39:03.524Z,1012.23
2017-01-27T11:40:03.585Z,1012.25
2017-01-27T11:41:03.659Z,1012.29
2017-01-27T11:42:03.549Z,1012.25
2017-01-27T11:43:03.560Z,1012.3
2017-01-27T11:44:03.564Z,1012.31
2017-01-27T11:45:03.623Z,1012.22
2017-01-27T11:46:03.578Z,1012.32
2017-01-27T11:47:03.675Z,1012.21
2017-01-27T11:48:03.659Z,1012.25
2017-01-27T11:49:03.602Z,1012.24
2017-01-27T11:50:03.609Z,1012.18
2017-01-27T11:51:03.617Z,1012.3
2017-01-27T11:52:03.624Z,1012.15
2017-01-27T11:53:03.632Z,1012.27
2017-01-27T11:54:03.722Z,1012.27
2017-01-27T11:55:03.647Z,1012.27
2017-01-27T11:56:03.654Z,1012.26
2017-01-27T11:57:03.777Z,1012.29
2017-01-27T11:58:03.718Z,1012.32
2017-01-27T11:59:03.677Z,1012.26
2017-01-27T12:00:03.684Z,1012.34
2017-01-27T12:01:03.692Z,1012.25
2017-01-27T12:02:03.701Z,1012.27
2017-01-27T12:03:03.709Z,1012.28
2017-01-27T12:04:03.716Z,1012.23
2017-01-27T12:05:03.722Z,1012.2
2017-01-27T12:06:03.729Z,1012.23
2017-01-27T12:07:03.742Z,1012.22
2017-01-27T12:08:03.745Z,1012.21
2017-01-27T12:09:03.803Z,1012.2